Time;durP1;ratioP1;P1;durP2;ratioP2;P2;SDS_P1;SDS_P2;PMS_P1;PMS_P2;Temp;Humidity;BMP_temperature;BMP_pressure;BME280_temperature;BME280_humidity;BME280_pressure;Samples;Min_cycle;Max_cycle;Signal;HPM_P1;HPM_P2
2022/01/30 00:01:16;;;;;;;18.82;3.87;;;;;;;5.14;80.60;99467.96;1792165;79;21032;-72
2022/01/30 00:03:42;;;;;;;19.32;4.45;;;;;;;5.15;80.50;99472.27;1813227;79;21081;-72
2022/01/30 00:06:08;;;;;;;13.25;3.42;;;;;;;5.19;80.38;99472.30;1807966;79;20892;-72
2022/01/30 00:08:34;;;;;;;14.40;3.33;;;;;;;5.23;80.23;99461.75;1749936;81;21045;-72
2022/01/30 00:11:08;;;;;;;11.83;3.22;;;;;;;5.22;80.03;99441.58;1780716;80;21002;-72
2022/01/30 00:13:28;;;;;;;16.93;3.85;;;;;;;5.26;79.75;99454.81;1782535;79;20978;-72
2022/01/30 00:15:55;;;;;;;20.50;5.25;;;;;;;5.28;79.52;99450.19;1758784;81;21304;-72
2022/01/30 00:18:44;;;;;;;26.25;6.83;;;;;;;5.28;79.29;99444.06;1777582;80;21090;-72
2022/01/30 00:21:06;;;;;;;16.90;3.42;;;;;;;5.30;79.03;99447.40;1737763;79;21633;-72
2022/01/30 00:23:26;;;;;;;15.15;3.10;;;;;;;5.30;78.58;99438.98;1767870;80;21030;-72
2022/01/30 00:25:54;;;;;;;11.93;3.30;;;;;;;5.36;78.27;99458.16;1790136;80;21042;-72
2022/01/30 00:28:21;;;;;;;12.28;2.90;;;;;;;5.36;77.92;99458.64;1782355;79;21531;-72
2022/01/30 00:30:47;;;;;;;14.63;2.83;;;;;;;5.32;77.67;99455.49;1779321;80;21003;-72
2022/01/30 00:33:13;;;;;;;12.93;3.42;;;;;;;5.32;77.23;99461.27;1776934;79;22129;-72
2022/01/30 00:35:39;;;;;;;18.92;3.80;;;;;;;5.31;77.04;99460.95;1778620;80;21027;-72
2022/01/30 00:38:11;;;;;;;23.02;3.20;;;;;;;5.28;76.77;99463.41;1779349;80;21090;-72
2022/01/30 00:40:36;;;;;;;25.00;4.47;;;;;;;5.28;76.52;99465.21;1780071;80;20999;-72
2022/01/30 00:43:02;;;;;;;23.92;3.45;;;;;;;5.28;76.21;99448.86;1780520;80;21019;-73
2022/01/30 00:45:28;;;;;;;14.07;2.62;;;;;;;5.27;75.83;99448.55;1780320;80;21460;-72
2022/01/30 00:47:54;;;;;;;12.23;2.27;;;;;;;5.25;75.55;99447.03;1779874;80;21456;-72
2022/01/30 00:50:20;;;;;;;9.58;2.12;;;;;;;5.24;75.30;99446.20;1780838;80;20995;-72
2022/01/30 00:52:50;;;;;;;12.28;2.65;;;;;;;5.22;75.14;99456.12;1780171;80;21022;-72
2022/01/30 00:55:14;;;;;;;19.25;3.47;;;;;;;5.22;74.96;99458.76;1779724;79;21487;-72
2022/01/30 00:57:40;;;;;;;11.12;2.62;;;;;;;5.22;74.86;99434.97;1778257;80;21149;-72
2022/01/30 01:00:07;;;;;;;22.85;4.80;;;;;;;5.20;74.71;99462.06;1777845;80;20975;-72
2022/01/30 01:02:33;;;;;;;14.75;3.55;;;;;;;5.20;74.60;99436.96;1783040;80;20976;-72
2022/01/30 01:05:04;;;;;;;15.50;4.08;;;;;;;5.18;74.46;99439.41;1770536;80;20997;-72
2022/01/30 01:07:27;;;;;;;13.18;3.62;;;;;;;5.15;74.38;99439.73;1764473;80;21037;-72
2022/01/30 01:10:08;;;;;;;14.47;3.42;;;;;;;5.12;74.32;99432.95;1789106;80;21029;-72
2022/01/30 01:12:43;;;;;;;12.03;3.10;;;;;;;5.16;74.16;99434.30;1788194;79;21029;-72
2022/01/30 01:25:46;;;;;;;19.15;3.27;;;;;;;5.08;74.00;99408.32;1784212;79;21520;-72
2022/01/30 01:28:12;;;;;;;13.28;3.02;;;;;;;5.02;74.00;99403.19;1784444;80;20978;-72
2022/01/30 01:30:38;;;;;;;17.75;5.20;;;;;;;5.05;73.87;99408.15;1784532;80;20990;-72
2022/01/30 01:33:06;;;;;;;17.23;3.02;;;;;;;5.10;73.74;99405.87;1756989;80;21054;-73
2022/01/30 01:35:32;;;;;;;15.05;2.75;;;;;;;5.08;73.72;99413.11;1766748;80;21220;-72
2022/01/30 01:37:58;;;;;;;22.90;4.60;;;;;;;5.06;73.71;99424.34;1767889;80;21032;-72
2022/01/30 01:40:24;;;;;;;19.48;4.00;;;;;;;5.05;73.67;99438.53;1741114;81;21012;-72
2022/01/30 01:42:50;;;;;;;14.47;4.40;;;;;;;4.95;73.62;99436.02;1778059;80;21567;-72
2022/01/30 01:45:20;;;;;;;15.78;3.58;;;;;;;4.81;73.70;99410.69;1777556;80;21490;-72
2022/01/30 01:47:44;;;;;;;16.93;4.50;;;;;;;4.69;73.83;99421.17;1726556;82;21079;-72
2022/01/30 01:50:17;;;;;;;15.65;4.97;;;;;;;4.60;73.96;99402.31;1757321;81;21545;-72
2022/01/30 01:52:38;;;;;;;17.37;3.35;;;;;;;4.54;74.11;99390.06;1756725;81;21052;-72
2022/01/30 01:55:04;;;;;;;16.12;3.33;;;;;;;4.49;74.23;99385.77;1756926;81;20990;-72
2022/01/30 01:57:30;;;;;;;16.15;4.55;;;;;;;4.50;74.32;99396.63;1758404;80;21056;-72
2022/01/30 01:59:56;;;;;;;24.40;6.08;;;;;;;4.49;74.41;99391.04;1783145;80;21148;-72
2022/01/30 02:02:24;;;;;;;27.13;5.50;;;;;;;4.53;74.43;99384.47;1778105;80;20960;-72
2022/01/30 02:04:50;;;;;;;14.18;4.15;;;;;;;4.61;74.36;99353.81;1793367;80;20996;-72
2022/01/30 02:09:44;;;;;;;18.77;4.22;;;;;;;4.78;74.04;99354.22;1778290;80;20997;-72
2022/01/30 02:12:17;;;;;;;18.92;4.05;;;;;;;4.83;73.90;99355.88;1782870;80;21605;-72
2022/01/30 02:14:48;;;;;;;17.77;3.17;;;;;;;4.87;73.70;99344.02;1777039;80;20977;-72
2022/01/30 02:25:38;;;;;;;26.68;5.80;;;;;;;4.96;72.33;99300.80;1778316;80;21725;-72
2022/01/30 02:27:57;;;;;;;25.75;6.47;;;;;;;4.93;72.08;99309.86;1796498;79;21488;-73
2022/01/30 02:30:21;;;;;;;26.62;7.30;;;;;;;4.88;72.01;99310.84;1800024;79;21049;-72
2022/01/30 02:32:48;;;;;;;15.25;4.40;;;;;;;4.88;71.94;99304.24;1777733;79;20983;-73
2022/01/30 02:35:15;;;;;;;17.67;4.65;;;;;;;4.89;71.82;99302.44;1765248;81;20986;-73
2022/01/30 02:37:41;;;;;;;15.58;4.72;;;;;;;4.90;71.78;99310.67;1766694;81;21325;-73
2022/01/30 02:40:11;;;;;;;17.02;3.12;;;;;;;4.90;71.64;99276.33;1768610;81;21050;-72
2022/01/30 02:42:41;;;;;;;14.43;3.83;;;;;;;4.95;71.44;99278.01;1769130;80;29071;-73
2022/01/30 02:45:08;;;;;;;22.25;3.02;;;;;;;4.97;71.34;99289.23;1776449;80;21033;-73
2022/01/30 02:50:20;;;;;;;14.28;3.35;;;;;;;4.94;71.12;99285.59;1778301;80;21135;-73
2022/01/30 02:52:44;;;;;;;14.10;3.15;;;;;;;4.96;70.95;99266.46;1757846;80;21002;-73
2022/01/30 02:55:12;;;;;;;10.72;2.75;;;;;;;4.99;70.68;99287.27;1793573;77;20999;-73
2022/01/30 02:57:38;;;;;;;15.90;2.45;;;;;;;5.01;70.53;99274.70;1793303;79;21062;-72
2022/01/30 03:00:06;;;;;;;11.93;2.90;;;;;;;5.02;70.34;99288.26;1784882;80;21483;-72
2022/01/30 03:02:32;;;;;;;8.93;2.12;;;;;;;5.08;70.00;99289.41;1804908;79;21503;-73
2022/01/30 03:04:58;;;;;;;16.50;3.47;;;;;;;5.11;69.89;99299.16;1757107;81;20982;-73
2022/01/30 03:07:24;;;;;;;11.90;3.12;;;;;;;5.12;69.73;99282.82;1757280;80;20979;-73
2022/01/30 03:09:50;;;;;;;22.20;4.50;;;;;;;5.14;69.51;99284.83;1763035;80;21014;-73
2022/01/30 03:12:17;;;;;;;15.63;4.00;;;;;;;5.17;69.28;99282.69;1752157;81;20971;-73
2022/01/30 03:14:43;;;;;;;12.98;2.67;;;;;;;5.15;69.26;99300.50;1790443;79;21898;-73
2022/01/30 03:17:09;;;;;;;16.95;3.80;;;;;;;5.12;69.21;99271.77;1772534;80;20983;-73
2022/01/30 03:19:35;;;;;;;12.82;3.08;;;;;;;5.10;69.15;99309.42;1774294;80;21002;-73
2022/01/30 03:22:01;;;;;;;18.37;3.77;;;;;;;5.10;69.16;99309.92;1787349;79;21048;-73
2022/01/30 03:24:34;;;;;;;12.18;2.70;;;;;;;5.02;69.21;99323.92;1795865;78;21538;-72
2022/01/30 03:26:55;;;;;;;13.18;2.72;;;;;;;4.98;69.27;99301.45;1799006;78;21381;-72
2022/01/30 03:29:21;;;;;;;11.45;2.47;;;;;;;4.94;69.31;99292.20;1800643;78;20974;-73
2022/01/30 03:31:47;;;;;;;13.90;2.62;;;;;;;4.92;69.41;99286.26;1817763;78;21033;-73
2022/01/30 03:34:14;;;;;;;9.28;2.65;;;;;;;4.92;69.46;99262.48;1788413;80;21518;-72
2022/01/30 03:36:40;;;;;;;14.63;3.02;;;;;;;4.94;69.49;99277.66;1787979;80;21612;-73
2022/01/30 03:39:06;;;;;;;15.68;3.20;;;;;;;4.98;69.50;99282.96;1802772;78;21896;-73
2022/01/30 03:41:32;;;;;;;15.55;3.72;;;;;;;4.99;69.54;99288.59;1817987;78;20989;-73
2022/01/30 03:43:58;;;;;;;19.55;3.00;;;;;;;4.97;69.58;99274.70;1808649;78;21076;-73
2022/01/30 03:46:24;;;;;;;12.75;2.85;;;;;;;4.97;69.57;99334.97;1790507;78;20941;-72
2022/01/30 03:48:50;;;;;;;10.05;2.00;;;;;;;4.92;69.60;99302.11;1805026;78;21044;-72
2022/01/30 03:51:16;;;;;;;10.50;3.00;;;;;;;4.84;69.71;99288.87;1820679;78;21084;-72
2022/01/30 03:53:42;;;;;;;8.68;2.15;;;;;;;4.75;69.86;99277.44;1817895;78;20891;-73
2022/01/30 03:56:08;;;;;;;15.08;3.98;;;;;;;4.69;70.04;99297.06;1797830;78;20977;-72
2022/01/30 03:58:35;;;;;;;12.58;2.40;;;;;;;4.63;70.22;99277.91;1820057;78;21498;-72
2022/01/30 04:01:01;;;;;;;22.10;3.17;;;;;;;4.64;70.35;99256.64;1815098;78;21096;-72
2022/01/30 04:03:27;;;;;;;12.50;2.70;;;;;;;4.67;70.43;99275.28;1818268;78;21132;-72
2022/01/30 04:05:53;;;;;;;18.20;3.83;;;;;;;4.66;70.51;99250.69;1789151;78;21005;-72
2022/01/30 04:08:19;;;;;;;12.78;2.80;;;;;;;4.71;70.51;99242.29;1788436;80;21068;-72
2022/01/30 04:10:46;;;;;;;11.20;2.25;;;;;;;4.76;70.44;99257.97;1788557;80;21471;-72
2022/01/30 04:13:12;;;;;;;8.95;2.30;;;;;;;4.86;70.26;99255.19;1788322;80;21044;-72
2022/01/30 04:15:38;;;;;;;10.35;2.20;;;;;;;4.90;70.23;99256.52;1790047;78;21030;-72
2022/01/30 04:18:06;;;;;;;13.50;2.25;;;;;;;4.91;70.17;99242.33;1792870;78;21551;-72
2022/01/30 04:20:33;;;;;;;11.28;2.40;;;;;;;4.95;70.01;99274.88;1787913;78;21476;-73
2022/01/30 04:22:59;;;;;;;16.65;3.80;;;;;;;5.00;69.79;99291.54;1784223;80;21537;-72
2022/01/30 04:25:25;;;;;;;22.58;3.40;;;;;;;5.03;69.67;99293.89;1772311;79;21495;-72
2022/01/30 04:27:51;;;;;;;17.37;3.95;;;;;;;5.02;69.66;99325.25;1782959;80;21904;-73
2022/01/30 04:30:18;;;;;;;10.18;2.22;;;;;;;4.99;69.69;99293.88;1783664;80;21050;-72
2022/01/30 04:32:44;;;;;;;12.13;2.05;;;;;;;4.93;69.71;99299.78;1786710;79;21088;-72
2022/01/30 04:35:19;;;;;;;10.20;2.70;;;;;;;4.81;69.85;99319.08;1802784;77;21045;-72
2022/01/30 04:54:59;;;;;;;15.38;2.55;;;;;;;4.23;72.20;99250.83;1833696;77;21246;-73
2022/01/30 04:57:19;;;;;;;13.38;3.17;;;;;;;4.31;72.34;99239.84;1827172;77;21491;-73
2022/01/30 05:00:03;;;;;;;18.70;3.52;;;;;;;4.34;72.41;99243.48;1834582;77;21480;-72
2022/01/30 05:02:38;;;;;;;14.78;3.08;;;;;;;4.33;72.49;99226.47;1822411;78;20999;-73
2022/01/30 05:09:41;;;;;;;12.55;2.60;;;;;;;4.52;72.38;99198.50;1844971;77;20968;-72
2022/01/30 05:12:09;;;;;;;10.05;2.40;;;;;;;4.59;72.22;99194.23;1823696;78;21496;-72
2022/01/30 05:14:37;;;;;;;12.78;2.67;;;;;;;4.65;71.89;99170.30;1839219;77;20992;-73
2022/01/30 05:17:04;;;;;;;19.07;4.25;;;;;;;4.70;71.62;99166.20;1828523;77;20979;-72
2022/01/30 05:19:31;;;;;;;13.55;2.75;;;;;;;4.75;71.31;99173.65;1844851;77;21471;-73
2022/01/30 05:21:57;;;;;;;14.87;3.02;;;;;;;4.74;70.92;99162.25;1828326;77;20936;-73
2022/01/30 05:24:24;;;;;;;15.50;2.65;;;;;;;4.76;70.64;99183.20;1860422;77;20964;-72
2022/01/30 05:26:50;;;;;;;17.37;2.60;;;;;;;4.72;70.47;99191.11;1843563;77;21538;-72
2022/01/30 05:29:17;;;;;;;8.55;1.92;;;;;;;4.68;70.41;99183.20;1826715;78;21002;-72
2022/01/30 05:31:43;;;;;;;9.35;2.75;;;;;;;4.64;70.36;99172.63;1827102;78;21174;-72
2022/01/30 05:34:09;;;;;;;15.20;2.85;;;;;;;4.64;70.26;99175.27;1833942;77;20939;-73
2022/01/30 05:36:38;;;;;;;13.25;2.45;;;;;;;4.61;70.21;99179.04;1830204;77;21475;-73
2022/01/30 05:39:06;;;;;;;11.40;3.02;;;;;;;4.58;70.17;99190.42;1831193;77;21023;-72
2022/01/30 05:41:32;;;;;;;10.35;2.12;;;;;;;4.52;70.22;99188.77;1833965;77;20969;-72
2022/01/30 05:44:10;;;;;;;18.35;2.92;;;;;;;4.44;70.29;99195.83;1853079;77;21959;-72
2022/01/30 05:46:39;;;;;;;11.93;2.02;;;;;;;4.41;70.37;99192.20;1832853;77;21447;-72
2022/01/30 05:49:02;;;;;;;14.80;2.33;;;;;;;4.37;70.48;99165.30;1823261;77;21010;-72
2022/01/30 05:51:28;;;;;;;11.95;2.70;;;;;;;4.37;70.62;99181.62;1826150;78;20990;-72
2022/01/30 05:53:54;;;;;;;14.65;2.87;;;;;;;4.34;70.67;99181.45;1826999;77;21010;-72
2022/01/30 05:56:20;;;;;;;13.32;2.52;;;;;;;4.31;70.82;99193.66;1836952;77;21135;-72
2022/01/30 05:58:46;;;;;;;16.85;3.37;;;;;;;4.28;70.94;99197.11;1837614;77;20946;-72
2022/01/30 06:01:12;;;;;;;8.35;1.98;;;;;;;4.28;71.06;99201.06;1827496;77;21499;-72
2022/01/30 06:03:38;;;;;;;13.10;2.52;;;;;;;4.28;71.14;99176.83;1831124;77;21550;-72
2022/01/30 06:06:07;;;;;;;13.53;2.70;;;;;;;4.26;71.22;99188.02;1833857;77;20976;-71
2022/01/30 06:08:45;;;;;;;10.25;2.58;;;;;;;4.27;71.29;99201.55;1827007;77;21918;-71
2022/01/30 06:11:10;;;;;;;14.70;3.05;;;;;;;4.27;71.39;99184.89;1847578;77;20999;-72
2022/01/30 06:13:36;;;;;;;15.10;3.25;;;;;;;4.28;71.44;99206.34;1813723;77;20995;-72
2022/01/30 06:16:03;;;;;;;19.57;3.27;;;;;;;4.26;71.49;99181.42;1860254;77;20919;-72
2022/01/30 06:18:29;;;;;;;12.13;2.45;;;;;;;4.26;71.54;99204.34;1858427;77;21008;-72
2022/01/30 06:20:55;;;;;;;10.40;1.60;;;;;;;4.26;71.60;99182.73;1826970;77;21060;-72
2022/01/30 06:23:26;;;;;;;10.30;1.67;;;;;;;4.24;71.63;99167.58;1814202;77;21574;-72
2022/01/30 06:25:50;;;;;;;8.60;2.03;;;;;;;4.24;71.65;99149.11;1831118;77;21062;-72
2022/01/30 06:28:16;;;;;;;15.00;2.67;;;;;;;4.19;71.60;99128.95;1818523;77;21620;-72
2022/01/30 06:30:42;;;;;;;8.85;2.45;;;;;;;4.30;71.54;99153.73;1832280;77;21023;-72
2022/01/30 06:33:08;;;;;;;16.60;4.20;;;;;;;4.32;71.43;99153.58;1813525;79;21450;-73
2022/01/30 06:35:34;;;;;;;14.53;2.00;;;;;;;4.30;71.42;99133.94;1804343;78;20984;-73
2022/01/30 06:38:02;;;;;;;12.58;2.30;;;;;;;4.27;71.37;99140.86;1795873;79;21038;-72
2022/01/30 06:40:28;;;;;;;7.00;1.85;;;;;;;4.34;71.26;99138.41;1795861;79;21558;-72
2022/01/30 06:42:54;;;;;;;5.22;1.60;;;;;;;4.37;71.16;99141.55;1810087;77;21407;-73
2022/01/30 06:45:21;;;;;;;16.02;2.80;;;;;;;4.40;71.01;99125.38;1833933;77;21890;-72
2022/01/30 06:47:47;;;;;;;12.10;3.02;;;;;;;4.39;70.93;99144.87;1814455;77;21009;-72
2022/01/30 06:50:13;;;;;;;12.90;3.65;;;;;;;4.41;70.84;99140.73;1845525;77;21467;-73
2022/01/30 06:52:39;;;;;;;14.65;3.40;;;;;;;4.43;70.76;99138.25;1842746;77;20979;-72
2022/01/30 06:55:06;;;;;;;8.93;2.25;;;;;;;4.47;70.70;99146.67;1840051;77;21302;-72
2022/01/30 06:57:32;;;;;;;11.73;2.50;;;;;;;4.47;70.55;99135.62;1813474;79;21075;-72
2022/01/30 06:59:59;;;;;;;12.85;2.15;;;;;;;4.49;70.51;99156.59;1827411;78;20966;-72
2022/01/30 07:02:25;;;;;;;7.35;2.10;;;;;;;4.50;70.44;99172.77;1829954;77;21006;-73
2022/01/30 07:04:51;;;;;;;13.88;3.35;;;;;;;4.50;70.37;99169.61;1830061;78;20963;-73
2022/01/30 07:07:17;;;;;;;13.08;2.72;;;;;;;4.49;70.33;99176.39;1790914;80;21446;-72
2022/01/30 07:09:43;;;;;;;15.30;2.17;;;;;;;4.45;70.38;99166.64;1775422;80;21839;-73
2022/01/30 07:12:09;;;;;;;10.25;1.87;;;;;;;4.41;70.47;99162.67;1763403;80;21493;-73
2022/01/30 07:14:35;;;;;;;11.97;2.55;;;;;;;4.38;70.58;99164.81;1772530;80;20937;-73
2022/01/30 07:17:01;;;;;;;10.10;2.20;;;;;;;4.35;70.74;99180.48;1767944;79;21004;-73
2022/01/30 07:19:28;;;;;;;14.35;2.72;;;;;;;4.32;70.91;99180.80;1765281;80;21055;-73
2022/01/30 07:21:54;;;;;;;9.73;2.33;;;;;;;4.22;71.17;99198.55;1794911;78;22224;-72
2022/01/30 07:24:20;;;;;;;18.98;3.15;;;;;;;4.18;71.42;99185.37;1806896;79;21007;-72
2022/01/30 07:26:46;;;;;;;11.12;2.35;;;;;;;4.14;71.69;99211.73;1807210;79;20982;-72
2022/01/30 07:29:12;;;;;;;14.10;3.22;;;;;;;4.10;71.87;99216.98;1807437;79;21472;-72
2022/01/30 07:31:38;;;;;;;12.78;2.90;;;;;;;4.06;72.10;99218.28;1804078;79;21551;-72
2022/01/30 07:34:04;;;;;;;14.13;2.95;;;;;;;4.02;72.35;99216.45;1780032;80;21082;-72
2022/01/30 07:36:33;;;;;;;15.53;3.65;;;;;;;4.00;72.64;99230.30;1788248;79;21021;-72
2022/01/30 07:38:59;;;;;;;12.18;2.35;;;;;;;3.99;72.86;99250.22;1785885;79;20982;-72
2022/01/30 07:41:25;;;;;;;12.25;2.25;;;;;;;3.98;73.18;99241.97;1806267;79;21028;-72
2022/01/30 07:43:51;;;;;;;10.60;2.15;;;;;;;3.91;73.45;99236.98;1792377;79;21049;-72
2022/01/30 07:46:17;;;;;;;17.57;2.85;;;;;;;3.81;73.72;99252.08;1812288;79;21031;-72
2022/01/30 07:48:43;;;;;;;10.03;2.47;;;;;;;3.76;73.91;99253.06;1808517;79;20986;-72
2022/01/30 07:51:09;;;;;;;18.60;5.05;;;;;;;3.75;74.13;99252.71;1791059;79;20994;-72
2022/01/30 07:53:35;;;;;;;15.03;3.52;;;;;;;3.77;74.32;99287.64;1780679;79;20991;-72
2022/01/30 07:56:01;;;;;;;15.68;2.42;;;;;;;3.64;74.62;99270.09;1782753;79;20887;-72
2022/01/30 07:58:27;;;;;;;15.63;3.67;;;;;;;3.42;75.07;99311.76;1789605;79;21115;-72
2022/01/30 08:00:53;;;;;;;16.75;2.80;;;;;;;3.25;75.35;99309.95;1812021;79;21443;-72
2022/01/30 08:03:19;;;;;;;20.88;4.45;;;;;;;3.14;75.85;99304.91;1797001;79;21701;-72
2022/01/30 08:05:45;;;;;;;18.98;5.12;;;;;;;3.01;76.17;99301.81;1784396;79;21026;-72
2022/01/30 08:08:11;;;;;;;22.67;6.00;;;;;;;2.93;76.49;99316.20;1782903;78;21010;-72
2022/01/30 08:10:37;;;;;;;19.90;4.78;;;;;;;2.85;76.83;99330.09;1732132;81;20980;-73
2022/01/30 08:13:03;;;;;;;17.12;4.00;;;;;;;2.70;77.18;99335.53;1729171;81;20918;-72
2022/01/30 08:15:29;;;;;;;18.00;2.62;;;;;;;2.65;77.48;99332.50;1780431;79;21092;-72
2022/01/30 08:17:55;;;;;;;17.45;3.67;;;;;;;2.62;77.78;99330.64;1763294;80;20967;-72
2022/01/30 08:20:25;;;;;;;27.75;9.50;;;;;;;2.62;78.05;99330.16;1761760;80;20994;-72
2022/01/30 08:22:51;;;;;;;16.77;4.60;;;;;;;2.60;78.35;99364.19;1763565;80;21155;-72
2022/01/30 08:25:18;;;;;;;22.73;3.00;;;;;;;2.59;78.58;99363.36;1760212;80;21515;-72
2022/01/30 08:27:45;;;;;;;20.12;6.05;;;;;;;2.60;78.87;99379.98;1719347;80;21070;-73
2022/01/30 08:30:11;;;;;;;11.90;3.05;;;;;;;2.65;79.13;99376.41;1778665;80;21017;-72
2022/01/30 08:32:42;;;;;;;11.33;2.87;;;;;;;2.70;79.30;99376.81;1778673;80;20956;-72
2022/01/30 08:35:09;;;;;;;23.80;4.62;;;;;;;2.79;79.54;99377.25;1745730;80;21680;-72
2022/01/30 08:37:35;;;;;;;18.30;3.17;;;;;;;2.89;79.73;99372.77;1776240;80;21018;-73
2022/01/30 08:40:04;;;;;;;17.00;2.72;;;;;;;2.97;79.93;99376.81;1775568;80;21057;-72
2022/01/30 08:42:30;;;;;;;18.37;4.12;;;;;;;3.08;80.13;99364.77;1750597;80;21502;-73
2022/01/30 08:44:56;;;;;;;17.80;3.75;;;;;;;3.16;80.30;99367.50;1734117;82;21061;-72
2022/01/30 08:47:22;;;;;;;9.85;2.77;;;;;;;3.24;80.43;99366.73;1745874;81;21864;-73
2022/01/30 08:49:48;;;;;;;19.30;3.98;;;;;;;3.27;80.54;99384.91;1735105;82;20927;-73
2022/01/30 08:52:16;;;;;;;14.23;3.33;;;;;;;3.30;80.62;99384.12;1758277;81;21451;-72
2022/01/30 08:54:42;;;;;;;12.05;4.40;;;;;;;3.33;80.72;99384.30;1734941;82;21026;-72
2022/01/30 08:57:09;;;;;;;16.10;4.00;;;;;;;3.36;80.77;99394.05;1734953;82;21066;-73
2022/01/30 08:59:35;;;;;;;19.35;5.62;;;;;;;3.40;80.81;99373.02;1755684;81;21138;-72
2022/01/30 09:02:01;;;;;;;19.07;6.75;;;;;;;3.41;80.89;99385.20;1734953;82;21014;-72
2022/01/30 09:04:26;;;;;;;24.07;6.90;;;;;;;3.45;80.94;99389.19;1752893;81;20916;-72
2022/01/30 09:06:52;;;;;;;37.23;12.13;;;;;;;3.48;81.00;99392.05;1735627;82;21038;-72
2022/01/30 09:09:18;;;;;;;29.77;11.45;;;;;;;3.49;81.02;99411.64;1768630;80;20987;-72
2022/01/30 09:11:44;;;;;;;19.50;4.95;;;;;;;3.51;81.04;99407.07;1714402;81;22119;-72
2022/01/30 09:14:10;;;;;;;16.23;6.75;;;;;;;3.54;81.05;99411.20;1745561;81;20991;-72
2022/01/30 09:16:36;;;;;;;15.35;6.00;;;;;;;3.58;81.08;99413.05;1743251;82;21049;-72
2022/01/30 09:19:02;;;;;;;16.45;5.12;;;;;;;3.61;81.05;99407.48;1734112;82;20975;-73
2022/01/30 09:21:29;;;;;;;15.03;4.62;;;;;;;3.58;81.03;99412.56;1734805;82;21003;-73
2022/01/30 09:23:56;;;;;;;24.23;7.92;;;;;;;3.62;80.99;99407.83;1750377;80;21216;-72
2022/01/30 09:26:22;;;;;;;39.27;11.50;;;;;;;3.63;80.91;99401.55;1753347;81;20980;-72
2022/01/30 09:28:48;;;;;;;37.40;12.10;;;;;;;3.67;80.90;99403.74;1753648;81;21495;-72
2022/01/30 09:31:14;;;;;;;19.15;7.28;;;;;;;3.76;80.86;99441.58;1753588;81;21519;-72
2022/01/30 09:33:40;;;;;;;16.20;4.08;;;;;;;3.82;80.84;99429.10;1783173;80;21101;-72
2022/01/30 09:36:06;;;;;;;17.12;4.05;;;;;;;3.88;80.80;99415.30;1775619;80;21157;-72
2022/01/30 09:38:33;;;;;;;24.45;5.37;;;;;;;3.90;80.71;99430.50;1753588;81;21011;-72
2022/01/30 09:40:58;;;;;;;19.98;4.60;;;;;;;3.90;80.66;99415.52;1753253;81;21007;-72
2022/01/30 09:43:27;;;;;;;18.42;4.53;;;;;;;3.93;80.56;99411.73;1753550;81;21030;-72
2022/01/30 09:45:53;;;;;;;15.68;4.60;;;;;;;4.00;80.43;99429.93;1753733;81;21547;-72
2022/01/30 09:48:19;;;;;;;18.60;4.35;;;;;;;4.06;80.32;99435.91;1753498;81;22113;-72
2022/01/30 09:50:46;;;;;;;24.55;5.55;;;;;;;4.11;80.16;99437.61;1753466;81;21479;-72
2022/01/30 09:53:13;;;;;;;18.37;4.90;;;;;;;4.13;80.04;99442.23;1753772;81;21492;-72
2022/01/30 09:55:39;;;;;;;23.27;5.33;;;;;;;4.19;79.85;99438.14;1753417;81;21018;-73
2022/01/30 09:58:05;;;;;;;27.82;6.28;;;;;;;4.25;79.72;99450.26;1780647;80;21725;-72
2022/01/30 10:00:32;;;;;;;23.15;6.12;;;;;;;4.25;79.56;99450.26;1778384;80;21183;-72
2022/01/30 10:02:58;;;;;;;20.97;6.33;;;;;;;4.26;79.37;99454.53;1753753;81;21085;-72
2022/01/30 10:05:24;;;;;;;18.05;4.70;;;;;;;4.28;79.25;99461.83;1753633;81;21038;-72
2022/01/30 10:07:52;;;;;;;15.13;4.25;;;;;;;4.31;79.10;99440.89;1753599;81;21054;-72
2022/01/30 10:10:22;;;;;;;24.07;5.55;;;;;;;4.30;78.90;99474.36;1753679;81;20991;-72
2022/01/30 10:13:11;;;;;;;12.37;4.12;;;;;;;4.31;78.67;99474.71;1761046;80;21704;-72
2022/01/30 10:15:52;;;;;;;;;;;;;;;4.33;78.59;99484.61;1787492;80;20996;-72
2022/01/30 10:18:19;;;;;;;25.80;7.15;;;;;;;4.38;78.43;99471.80;1774018;80;20450;-73
2022/01/30 10:20:46;;;;;;;17.57;4.78;;;;;;;4.47;78.32;99484.55;1753872;81;21015;-73
2022/01/30 10:23:12;;;;;;;27.27;5.97;;;;;;;4.51;78.17;99478.81;1755730;81;21333;-73
2022/01/30 10:25:48;;;;;;;27.52;5.12;;;;;;;4.60;77.93;99470.97;1759010;81;22024;-73
2022/01/30 10:28:18;;;;;;;21.95;5.87;;;;;;;4.64;77.69;99453.83;1759307;81;20994;-73
2022/01/30 10:30:55;;;;;;;25.62;6.40;;;;;;;4.67;77.39;99483.89;1753416;81;21046;-72
2022/01/30 10:33:25;;;;;;;18.55;4.70;;;;;;;4.70;77.17;99483.09;1753244;81;21030;-72
2022/01/30 10:35:57;;;;;;;;;;;;;;;4.75;77.02;99505.08;1727889;81;21014;-72
2022/01/30 10:38:35;;;;;;;22.00;5.33;;;;;;;4.83;76.85;99491.91;1752818;81;21290;-73
2022/01/30 10:41:12;;;;;;;23.07;5.45;;;;;;;4.86;76.72;99500.83;1756400;81;20978;-72
2022/01/30 10:43:54;;;;;;;22.87;5.47;;;;;;;4.87;76.57;99494.09;1752911;81;20993;-72
2022/01/30 10:46:30;;;;;;;24.95;6.15;;;;;;;4.89;76.34;99526.97;1753340;81;21013;-73
2022/01/30 10:49:01;;;;;;;21.50;5.87;;;;;;;4.92;76.17;99526.65;1753570;81;21014;-73
2022/01/30 10:51:28;;;;;;;17.70;4.37;;;;;;;4.92;75.96;99542.02;1759630;81;21133;-73
2022/01/30 10:53:57;;;;;;;21.55;5.17;;;;;;;4.92;75.78;99521.36;1759577;80;21508;-73
2022/01/30 10:56:27;;;;;;;31.52;6.83;;;;;;;4.90;75.61;99554.53;1766353;80;21043;-72
2022/01/30 10:59:14;;;;;;;35.10;6.78;;;;;;;4.88;75.46;99570.20;1759458;81;21039;-73
2022/01/30 11:01:45;;;;;;;36.38;8.18;;;;;;;4.84;75.37;99565.72;1759426;81;21074;-73
2022/01/30 11:04:24;;;;;;;27.15;5.42;;;;;;;4.80;75.31;99568.81;1764967;80;21045;-73
2022/01/30 11:06:51;;;;;;;24.98;6.85;;;;;;;4.79;75.19;99576.39;1774684;80;20998;-73
2022/01/30 11:09:20;;;;;;;24.57;5.30;;;;;;;4.76;75.06;99584.14;1771625;80;20986;-73
2022/01/30 11:11:51;;;;;;;24.23;6.22;;;;;;;4.75;75.04;99593.55;1762455;80;20955;-73
2022/01/30 11:14:17;;;;;;;33.25;8.80;;;;;;;4.72;75.02;99591.19;1759281;80;21018;-73
2022/01/30 11:19:26;;;;;;;33.58;7.17;;;;;;;4.70;75.08;99603.73;1735364;81;20966;-73
2022/01/30 11:21:56;;;;;;;25.57;8.48;;;;;;;4.75;75.05;99594.88;1758978;81;20998;-73
2022/01/30 11:24:24;;;;;;;30.75;8.55;;;;;;;4.78;74.92;99618.33;1766124;81;21006;-73
2022/01/30 11:26:50;;;;;;;22.05;7.03;;;;;;;4.79;74.93;99602.31;1758697;80;21087;-72
2022/01/30 11:29:20;;;;;;;33.70;10.00;;;;;;;4.81;74.87;99608.78;1752179;81;21171;-73
2022/01/30 11:31:48;;;;;;;27.25;7.42;;;;;;;4.84;74.84;99619.03;1752492;81;20985;-72
2022/01/30 11:34:14;;;;;;;34.33;8.70;;;;;;;4.87;74.78;99632.77;1769024;81;21355;-72
2022/01/30 11:36:41;;;;;;;27.90;7.72;;;;;;;4.91;74.75;99628.01;1715962;81;21507;-72
2022/01/30 11:39:08;;;;;;;30.88;6.17;;;;;;;4.94;74.65;99635.63;1768713;81;21022;-72
2022/01/30 11:41:35;;;;;;;31.73;7.45;;;;;;;4.97;74.52;99646.72;1768484;81;21246;-73
2022/01/30 11:44:23;;;;;;;52.45;15.95;;;;;;;5.01;74.44;99657.33;1768774;81;21034;-72
2022/01/30 11:47:00;;;;;;;38.80;10.05;;;;;;;5.03;74.34;99666.44;1765718;81;21033;-72
2022/01/30 11:50:02;;;;;;;34.38;9.75;;;;;;;5.10;74.14;99667.97;1770426;80;20991;-72
2022/01/30 11:52:50;;;;;;;37.67;8.65;;;;;;;5.14;73.97;99665.36;1766488;80;21025;-72
2022/01/30 11:55:50;;;;;;;38.17;11.28;;;;;;;5.16;73.79;99664.22;1738078;81;21120;-72
2022/01/30 11:58:38;;;;;;;40.50;8.63;;;;;;;5.19;73.67;99671.84;1765305;81;21048;-72
2022/01/30 12:01:15;;;;;;;37.05;8.20;;;;;;;5.23;73.46;99665.27;1764538;81;20985;-72
2022/01/30 12:03:59;;;;;;;33.35;6.80;;;;;;;5.27;73.20;99663.98;1765292;81;21049;-72
2022/01/30 12:06:32;;;;;;;34.30;8.28;;;;;;;5.28;72.98;99686.77;1765261;81;21455;-72
2022/01/30 12:09:02;;;;;;;37.20;9.35;;;;;;;5.33;72.62;99687.14;1766317;81;22053;-72
2022/01/30 12:11:47;;;;;;;34.92;8.00;;;;;;;5.37;72.31;99685.86;1768515;81;20995;-72
2022/01/30 12:14:26;;;;;;;29.80;8.38;;;;;;;5.42;71.98;99678.77;1768425;81;21034;-72
2022/01/30 12:16:56;;;;;;;35.45;9.30;;;;;;;5.46;71.74;99692.85;1765658;81;21033;-72
2022/01/30 12:19:39;;;;;;;29.90;7.22;;;;;;;5.46;71.58;99708.72;1766282;81;21005;-72
2022/01/30 12:22:28;;;;;;;31.20;7.22;;;;;;;5.48;71.23;99693.55;1767583;81;21081;-72
2022/01/30 12:25:19;;;;;;;36.03;10.13;;;;;;;5.51;70.81;99702.97;1765364;81;20983;-72
2022/01/30 12:27:51;;;;;;;37.67;11.10;;;;;;;5.51;70.55;99711.73;1772174;80;21506;-73